createdAt,value
2016-04-16T00:00:22.133Z,993.11
2016-04-16T00:01:22.183Z,993.12
2016-04-16T00:02:22.233Z,993.08
2016-04-16T00:03:22.283Z,993.06
2016-04-16T00:04:22.333Z,993.06
2016-04-16T00:05:22.382Z,993.02
2016-04-16T00:06:22.432Z,993.01
2016-04-16T00:07:22.480Z,993.01
2016-04-16T00:08:22.530Z,992.98
2016-04-16T00:09:22.596Z,992.99
2016-04-16T00:10:22.645Z,993.02
2016-04-16T00:11:22.695Z,993.01
2016-04-16T00:12:22.743Z,992.98
2016-04-16T00:13:22.793Z,992.92
2016-04-16T00:14:22.843Z,992.91
2016-04-16T00:15:22.893Z,992.92
2016-04-16T00:16:22.943Z,992.86
2016-04-16T00:17:22.993Z,992.9
2016-04-16T00:18:23.042Z,992.85
2016-04-16T00:19:23.092Z,992.83
2016-04-16T00:20:23.140Z,992.82
2016-04-16T00:21:23.206Z,992.78
2016-04-16T00:22:23.256Z,992.74
2016-04-16T00:23:23.306Z,992.77
2016-04-16T00:24:23.356Z,992.73
2016-04-16T00:25:23.404Z,992.67
2016-04-16T00:26:23.454Z,992.65
2016-04-16T00:27:23.503Z,992.63
2016-04-16T00:28:23.553Z,992.62
2016-04-16T00:29:23.603Z,992.64
2016-04-16T00:30:23.652Z,992.62
2016-04-16T00:31:23.702Z,992.62
2016-04-16T00:32:23.751Z,992.62
2016-04-16T00:33:23.816Z,992.59
2016-04-16T00:34:23.866Z,992.64
2016-04-16T00:35:23.916Z,992.6
2016-04-16T00:36:23.966Z,992.56
2016-04-16T00:37:24.015Z,992.58
2016-04-16T00:38:24.064Z,992.55
2016-04-16T00:39:24.113Z,992.55
2016-04-16T00:40:24.163Z,992.55
2016-04-16T00:41:24.213Z,992.51
2016-04-16T00:42:24.262Z,992.54
2016-04-16T00:43:24.312Z,992.55
2016-04-16T00:44:24.376Z,992.55
2016-04-16T00:45:24.426Z,992.52
2016-04-16T00:46:24.476Z,992.51
2016-04-16T00:47:24.526Z,992.48
2016-04-16T00:48:24.576Z,992.5
2016-04-16T00:49:24.626Z,992.5
2016-04-16T00:50:24.675Z,992.55
2016-04-16T00:51:24.724Z,992.49
2016-04-16T00:52:24.773Z,992.51
2016-04-16T00:53:24.824Z,992.46
2016-04-16T00:54:24.873Z,992.44
2016-04-16T00:55:24.939Z,992.42
2016-04-16T00:56:24.988Z,992.44
2016-04-16T00:57:25.037Z,992.37
2016-04-16T00:58:25.087Z,992.36
2016-04-16T00:59:25.136Z,992.37
2016-04-16T01:00:25.186Z,992.34
2016-04-16T01:01:25.235Z,992.34
2016-04-16T01:02:25.285Z,992.35
2016-04-16T01:03:25.335Z,992.35
2016-04-16T01:04:25.384Z,992.35
2016-04-16T01:05:25.434Z,992.36
2016-04-16T01:06:25.499Z,992.43
2016-04-16T01:07:25.549Z,992.38
2016-04-16T01:08:25.598Z,992.42
2016-04-16T01:09:25.647Z,992.35
2016-04-16T01:10:25.697Z,992.37
2016-04-16T01:11:25.746Z,992.35
2016-04-16T01:12:25.796Z,992.36
2016-04-16T01:13:25.845Z,992.34
2016-04-16T01:14:25.911Z,992.32
2016-04-16T01:15:25.945Z,992.32
2016-04-16T01:16:25.995Z,992.3
2016-04-16T01:17:26.059Z,992.33
2016-04-16T01:18:26.125Z,992.29
2016-04-16T01:19:26.159Z,992.3
2016-04-16T01:20:26.208Z,992.31
2016-04-16T01:21:26.259Z,992.29
2016-04-16T01:22:26.307Z,992.29
2016-04-16T01:23:26.357Z,992.25
2016-04-16T01:24:26.406Z,992.23
2016-04-16T01:25:26.456Z,992.23
2016-04-16T01:26:26.505Z,992.24
2016-04-16T01:27:26.555Z,992.25
2016-04-16T01:28:26.620Z,992.19
2016-04-16T01:29:26.655Z,992.19
2016-04-16T01:30:26.719Z,992.21
2016-04-16T01:31:26.769Z,992.21
2016-04-16T01:32:26.834Z,992.21
2016-04-16T01:33:26.868Z,992.23
2016-04-16T01:34:26.949Z,992.16
2016-04-16T01:35:26.967Z,992.12
2016-04-16T01:36:27.016Z,992.14
2016-04-16T01:37:27.066Z,992.13
2016-04-16T01:38:27.116Z,992.1
2016-04-16T01:39:27.165Z,992.12
2016-04-16T01:40:27.230Z,992.1
2016-04-16T01:41:27.280Z,992.1
2016-04-16T01:42:27.345Z,992.11
2016-04-16T01:43:27.395Z,992.11
2016-04-16T01:44:27.429Z,992.12
2016-04-16T01:45:27.479Z,992.11
2016-04-16T01:46:27.529Z,992.14
2016-04-16T01:47:27.579Z,992.14
2016-04-16T01:48:27.627Z,992.12
2016-04-16T01:49:27.677Z,992.14
2016-04-16T01:50:27.726Z,992.12
2016-04-16T01:51:27.776Z,992.1
2016-04-16T01:52:27.825Z,992.09
2016-04-16T01:53:27.890Z,992.08
2016-04-16T01:54:27.940Z,992.06
2016-04-16T01:55:27.990Z,992.07
2016-04-16T01:56:28.040Z,992.05
2016-04-16T01:57:28.089Z,992.03
2016-04-16T01:58:28.139Z,992.02
2016-04-16T01:59:28.188Z,991.99
2016-04-16T02:00:28.238Z,991.93
2016-04-16T02:01:28.286Z,991.94
2016-04-16T02:02:28.336Z,991.93
2016-04-16T02:03:28.390Z,991.92
2016-04-16T02:04:28.455Z,991.94
2016-04-16T02:05:28.505Z,991.92
2016-04-16T02:06:28.539Z,991.94
2016-04-16T02:07:28.604Z,991.91
2016-04-16T02:08:28.653Z,991.96
2016-04-16T02:09:28.703Z,991.91
2016-04-16T02:10:28.753Z,991.89
2016-04-16T02:11:28.803Z,991.88
2016-04-16T02:12:28.853Z,991.86
2016-04-16T02:13:28.902Z,991.92
2016-04-16T02:14:28.951Z,991.9
2016-04-16T02:15:29.000Z,991.87
2016-04-16T02:16:29.066Z,991.87
2016-04-16T02:17:29.115Z,991.85
2016-04-16T02:18:29.165Z,991.84
2016-04-16T02:19:29.214Z,991.86
2016-04-16T02:20:29.264Z,991.77
2016-04-16T02:21:29.313Z,991.76
2016-04-16T02:22:29.366Z,991.78
2016-04-16T02:23:29.415Z,991.77
2016-04-16T02:24:29.465Z,991.77
2016-04-16T02:25:29.514Z,991.79
2016-04-16T02:26:29.563Z,991.76
2016-04-16T02:27:29.613Z,991.75
2016-04-16T02:28:29.678Z,991.75
2016-04-16T02:29:29.729Z,991.74
2016-04-16T02:30:29.778Z,991.67
2016-04-16T02:31:29.827Z,991.68
2016-04-16T02:32:29.876Z,991.68
2016-04-16T02:33:30.004Z,991.68
2016-04-16T02:34:29.975Z,991.66
2016-04-16T02:35:30.025Z,991.64
2016-04-16T02:36:30.075Z,991.64
2016-04-16T02:37:30.125Z,991.63
2016-04-16T02:38:30.175Z,991.63
2016-04-16T02:39:30.239Z,991.61
2016-04-16T02:40:30.289Z,991.6
2016-04-16T02:41:30.322Z,991.56
2016-04-16T02:42:30.388Z,991.59
2016-04-16T02:43:30.437Z,991.56
2016-04-16T02:44:30.527Z,991.52
2016-04-16T02:45:30.620Z,991.54
2016-04-16T02:46:30.712Z,991.47
2016-04-16T02:47:30.805Z,991.49
2016-04-16T02:48:30.897Z,991.49
2016-04-16T02:49:30.978Z,991.46
2016-04-16T02:50:31.028Z,991.43
2016-04-16T02:51:31.093Z,991.49
2016-04-16T02:52:31.173Z,991.48
2016-04-16T02:53:31.239Z,991.48
2016-04-16T02:54:31.294Z,991.42
2016-04-16T02:55:31.349Z,991.44
2016-04-16T02:56:31.405Z,991.44
2016-04-16T02:57:31.459Z,991.44
2016-04-16T02:58:31.514Z,991.45
2016-04-16T02:59:31.566Z,991.44
2016-04-16T03:00:31.634Z,991.44
2016-04-16T03:01:31.669Z,991.39
2016-04-16T03:02:31.737Z,991.37
2016-04-16T03:03:31.788Z,991.35
2016-04-16T03:04:31.838Z,991.37
2016-04-16T03:05:31.920Z,991.31
2016-04-16T03:06:31.939Z,991.36
2016-04-16T03:07:31.990Z,991.34
2016-04-16T03:08:32.040Z,991.34
2016-04-16T03:09:32.090Z,991.36
2016-04-16T03:10:32.139Z,991.34
2016-04-16T03:11:32.206Z,991.29
2016-04-16T03:12:32.256Z,991.29
2016-04-16T03:13:32.306Z,991.32
2016-04-16T03:14:32.355Z,991.3
2016-04-16T03:15:32.404Z,991.3
2016-04-16T03:16:32.454Z,991.32
2016-04-16T03:17:32.519Z,991.3
2016-04-16T03:18:32.553Z,991.33
2016-04-16T03:19:32.618Z,991.33
2016-04-16T03:20:32.668Z,991.31
2016-04-16T03:21:32.702Z,991.25
2016-04-16T03:22:32.767Z,991.32
2016-04-16T03:23:32.816Z,991.25
2016-04-16T03:24:32.866Z,991.29
2016-04-16T03:25:32.930Z,991.29
2016-04-16T03:26:32.965Z,991.27
2016-04-16T03:27:33.015Z,991.26
2016-04-16T03:28:33.064Z,991.28
2016-04-16T03:29:33.130Z,991.24
2016-04-16T03:30:33.163Z,991.22
2016-04-16T03:31:33.229Z,991.21
2016-04-16T03:32:33.263Z,991.21
2016-04-16T03:33:33.327Z,991.25
2016-04-16T03:34:33.377Z,991.18
2016-04-16T03:35:33.473Z,991.14
2016-04-16T03:36:33.476Z,991.13
2016-04-16T03:37:33.526Z,991.14
2016-04-16T03:38:33.576Z,991.16
2016-04-16T03:39:33.625Z,991.13
2016-04-16T03:40:33.690Z,991.15
2016-04-16T03:41:33.724Z,991.03
2016-04-16T03:42:33.773Z,991.08
2016-04-16T03:43:33.840Z,991.1
2016-04-16T03:44:33.889Z,991.08
2016-04-16T03:45:33.939Z,991.09
2016-04-16T03:46:33.987Z,991.07
2016-04-16T03:47:34.037Z,991.05
2016-04-16T03:48:34.087Z,991.05
2016-04-16T03:49:34.152Z,991.08
2016-04-16T03:50:34.202Z,991.06
2016-04-16T03:51:34.250Z,991.05
2016-04-16T03:52:34.301Z,991.13
2016-04-16T03:53:34.350Z,991.08
2016-04-16T03:54:34.400Z,991.09
2016-04-16T03:55:34.449Z,991.07
2016-04-16T03:56:34.499Z,991.07
2016-04-16T03:57:34.549Z,991.05
2016-04-16T03:58:34.598Z,991.06
2016-04-16T03:59:34.663Z,991.07
2016-04-16T04:00:34.712Z,991.04
2016-04-16T04:01:34.746Z,991.06
2016-04-16T04:02:34.812Z,991.06
2016-04-16T04:03:34.862Z,991.11
2016-04-16T04:04:34.911Z,991.16
2016-04-16T04:05:34.992Z,991.14
2016-04-16T04:06:35.010Z,991.15
2016-04-16T04:07:35.059Z,991.19
2016-04-16T04:08:35.109Z,991.16
2016-04-16T04:09:35.159Z,991.21
2016-04-16T04:10:35.224Z,991.2
2016-04-16T04:11:35.274Z,991.23
2016-04-16T04:12:35.307Z,991.2
2016-04-16T04:13:35.373Z,991.18
2016-04-16T04:14:35.422Z,991.13
2016-04-16T04:15:35.472Z,991.13
2016-04-16T04:16:35.522Z,991.1
2016-04-16T04:17:35.586Z,991.15
2016-04-16T04:18:35.620Z,991.13
2016-04-16T04:19:35.670Z,991.14
2016-04-16T04:20:35.814Z,991.18
2016-04-16T04:21:35.770Z,991.21
2016-04-16T04:22:35.819Z,991.22
2016-04-16T04:23:35.884Z,991.31
2016-04-16T04:24:35.933Z,991.31
2016-04-16T04:25:35.983Z,991.33
2016-04-16T04:26:36.032Z,991.38
2016-04-16T04:27:36.082Z,991.36
2016-04-16T04:28:36.132Z,991.28
2016-04-16T04:29:36.197Z,991.3
2016-04-16T04:30:36.247Z,991.34
2016-04-16T04:31:36.280Z,991.28
2016-04-16T04:32:36.330Z,991.34
2016-04-16T04:33:36.395Z,991.3
2016-04-16T04:34:36.446Z,991.33
2016-04-16T04:35:36.494Z,991.32
2016-04-16T04:36:36.544Z,991.28
2016-04-16T04:37:36.610Z,991.34
2016-04-16T04:38:36.659Z,991.33
2016-04-16T04:39:36.693Z,991.34
2016-04-16T04:40:36.757Z,991.35
2016-04-16T04:41:36.807Z,991.35
2016-04-16T04:42:36.841Z,991.37
2016-04-16T04:43:36.907Z,991.38
2016-04-16T04:44:36.956Z,991.39
2016-04-16T04:45:37.006Z,991.39
2016-04-16T04:46:37.056Z,991.43
2016-04-16T04:47:37.105Z,991.4
2016-04-16T04:48:37.154Z,991.39
2016-04-16T04:49:37.219Z,991.35
2016-04-16T04:50:37.253Z,991.4
2016-04-16T04:51:37.303Z,991.41
2016-04-16T04:52:37.369Z,991.32
2016-04-16T04:53:37.418Z,991.38
2016-04-16T04:54:37.467Z,991.41
2016-04-16T04:55:37.517Z,991.37
2016-04-16T04:56:37.582Z,991.32
2016-04-16T04:57:37.616Z,991.35
2016-04-16T04:58:37.680Z,991.39
2016-04-16T04:59:37.731Z,991.4
2016-04-16T05:00:37.765Z,991.35
2016-04-16T05:01:37.830Z,991.42
2016-04-16T05:02:37.880Z,991.42
2016-04-16T05:03:37.929Z,991.43
2016-04-16T05:04:37.979Z,991.42
2016-04-16T05:05:38.028Z,991.41
2016-04-16T05:06:38.077Z,991.39
2016-04-16T05:07:38.143Z,991.39
2016-04-16T05:08:38.180Z,991.42
2016-04-16T05:09:38.229Z,991.37
2016-04-16T05:10:38.295Z,991.46
2016-04-16T05:11:38.328Z,991.48
2016-04-16T05:12:38.379Z,991.54
2016-04-16T05:13:38.443Z,991.49
2016-04-16T05:14:38.493Z,991.58
2016-04-16T05:15:38.543Z,991.57
2016-04-16T05:16:38.592Z,991.52
2016-04-16T05:17:38.641Z,991.58
2016-04-16T05:18:38.691Z,991.6
2016-04-16T05:19:38.740Z,991.61
2016-04-16T05:20:38.806Z,991.6
2016-04-16T05:21:38.856Z,991.6
2016-04-16T05:22:38.890Z,991.6
2016-04-16T05:23:38.939Z,991.62
2016-04-16T05:24:39.004Z,991.73
2016-04-16T05:25:39.054Z,991.69
2016-04-16T05:26:39.103Z,991.65
2016-04-16T05:27:39.152Z,991.67
2016-04-16T05:28:39.203Z,991.71
2016-04-16T05:29:39.252Z,991.7
2016-04-16T05:30:39.302Z,991.79
2016-04-16T05:31:39.352Z,991.74
2016-04-16T05:32:39.417Z,991.76
2016-04-16T05:33:39.466Z,991.81
2016-04-16T05:34:39.515Z,991.8
2016-04-16T05:35:39.565Z,991.82
2016-04-16T05:36:39.615Z,991.83
2016-04-16T05:37:39.664Z,991.83
2016-04-16T05:38:39.713Z,991.84
2016-04-16T05:39:39.763Z,991.84
2016-04-16T05:40:39.829Z,991.88
2016-04-16T05:41:39.863Z,991.91
2016-04-16T05:42:39.912Z,991.92
2016-04-16T05:43:39.977Z,991.95
2016-04-16T05:44:40.026Z,991.93
2016-04-16T05:45:40.076Z,991.94
2016-04-16T05:46:40.142Z,991.86
2016-04-16T05:47:40.175Z,991.88
2016-04-16T05:48:40.226Z,991.89
2016-04-16T05:49:40.306Z,991.91
2016-04-16T05:50:40.340Z,991.93
2016-04-16T05:51:40.373Z,991.85
2016-04-16T05:52:40.439Z,991.93
2016-04-16T05:53:40.489Z,991.92
2016-04-16T05:54:40.538Z,991.88
2016-04-16T05:55:40.587Z,991.89
2016-04-16T05:56:40.637Z,991.97
2016-04-16T05:57:40.686Z,991.92
2016-04-16T05:58:40.752Z,991.94
2016-04-16T05:59:40.785Z,991.96
2016-04-16T06:00:40.836Z,991.98
2016-04-16T06:01:40.900Z,991.91
2016-04-16T06:02:40.950Z,991.93
2016-04-16T06:03:40.999Z,991.89
2016-04-16T06:04:41.049Z,991.89
2016-04-16T06:05:41.099Z,991.88
2016-04-16T06:06:41.148Z,991.93
2016-04-16T06:07:41.198Z,991.89
2016-04-16T06:08:41.263Z,991.89
2016-04-16T06:09:41.296Z,991.9
2016-04-16T06:10:41.362Z,991.86
2016-04-16T06:11:41.412Z,991.93
2016-04-16T06:12:41.462Z,991.91
2016-04-16T06:13:41.511Z,991.94
2016-04-16T06:14:41.560Z,991.94
2016-04-16T06:15:41.610Z,992
2016-04-16T06:16:41.660Z,992.01
2016-04-16T06:17:41.710Z,991.89
2016-04-16T06:18:41.774Z,991.97
2016-04-16T06:19:41.824Z,991.91
2016-04-16T06:20:41.873Z,991.95
2016-04-16T06:21:41.923Z,992
2016-04-16T06:22:41.972Z,991.94
2016-04-16T06:23:42.023Z,992.01
2016-04-16T06:24:42.072Z,992.04
2016-04-16T06:25:42.122Z,992.04
2016-04-16T06:26:42.171Z,992.01
2016-04-16T06:27:42.220Z,992.01
2016-04-16T06:28:42.285Z,992.15
2016-04-16T06:29:42.320Z,992.02
2016-04-16T06:30:42.385Z,992.06
2016-04-16T06:31:42.434Z,992.01
2016-04-16T06:32:42.483Z,992.06
2016-04-16T06:33:42.533Z,992.14
2016-04-16T06:34:42.583Z,992.13
2016-04-16T06:35:42.632Z,992.13
2016-04-16T06:36:42.683Z,992.07
2016-04-16T06:37:42.732Z,992.07
2016-04-16T06:38:42.782Z,992.14
2016-04-16T06:39:42.846Z,992.08
2016-04-16T06:40:42.896Z,992.12
2016-04-16T06:41:42.946Z,992.14
2016-04-16T06:42:42.996Z,992.21
2016-04-16T06:43:43.046Z,992.16
2016-04-16T06:44:43.094Z,992.14
2016-04-16T06:45:43.144Z,992.22
2016-04-16T06:46:43.193Z,992.24
2016-04-16T06:47:43.259Z,992.27
2016-04-16T06:48:43.309Z,992.27
2016-04-16T06:49:43.342Z,992.26
2016-04-16T06:50:43.407Z,992.28
2016-04-16T06:51:43.457Z,992.35
2016-04-16T06:52:43.507Z,992.29
2016-04-16T06:53:43.556Z,992.27
2016-04-16T06:54:43.606Z,992.21
2016-04-16T06:55:43.656Z,992.23
2016-04-16T06:56:43.720Z,992.33
2016-04-16T06:57:43.754Z,992.26
2016-04-16T06:58:43.820Z,992.37
2016-04-16T06:59:43.884Z,992.19
2016-04-16T07:00:43.903Z,992.22
2016-04-16T07:01:43.969Z,992.19
2016-04-16T07:02:44.017Z,992.29
2016-04-16T07:03:44.067Z,992.22
2016-04-16T07:04:44.117Z,992.24
2016-04-16T07:05:44.166Z,992.27
2016-04-16T07:06:44.216Z,992.24
2016-04-16T07:07:44.266Z,992.31
2016-04-16T07:08:44.330Z,992.37
2016-04-16T07:09:44.380Z,992.24
2016-04-16T07:10:44.429Z,992.27
2016-04-16T07:11:44.480Z,992.29
2016-04-16T07:12:44.530Z,992.26
2016-04-16T07:13:44.578Z,992.29
2016-04-16T07:14:44.629Z,992.35
2016-04-16T07:15:44.677Z,992.36
2016-04-16T07:16:44.743Z,992.4
2016-04-16T07:17:44.777Z,992.37
2016-04-16T07:18:44.826Z,992.35
2016-04-16T07:19:44.892Z,992.37
2016-04-16T07:20:44.940Z,992.46
2016-04-16T07:21:45.287Z,992.37
2016-04-16T07:22:45.040Z,992.46
2016-04-16T07:23:45.089Z,992.45
2016-04-16T07:24:45.139Z,992.45
2016-04-16T07:25:45.189Z,992.59
2016-04-16T07:26:45.239Z,992.5
2016-04-16T07:27:45.303Z,992.48
2016-04-16T07:28:45.353Z,992.56
2016-04-16T07:29:45.403Z,992.52
2016-04-16T07:30:45.468Z,992.49
2016-04-16T07:31:45.503Z,992.55
2016-04-16T07:32:45.552Z,992.48
2016-04-16T07:33:45.601Z,992.52
2016-04-16T07:34:45.650Z,992.52
2016-04-16T07:35:45.716Z,992.6
2016-04-16T07:36:45.766Z,992.62
2016-04-16T07:37:45.815Z,992.54
2016-04-16T07:38:45.864Z,992.6
2016-04-16T07:39:45.913Z,992.51
2016-04-16T07:40:45.963Z,992.55
2016-04-16T07:41:46.014Z,992.61
2016-04-16T07:42:46.078Z,992.57
2016-04-16T07:43:46.112Z,992.54
2016-04-16T07:44:46.162Z,992.52
2016-04-16T07:45:46.227Z,992.48
2016-04-16T07:46:46.261Z,992.49
2016-04-16T07:47:46.327Z,992.57
2016-04-16T07:48:46.376Z,992.69
2016-04-16T07:49:46.426Z,992.54
2016-04-16T07:50:46.475Z,992.61
2016-04-16T07:51:46.524Z,992.54
2016-04-16T07:52:46.574Z,992.56
2016-04-16T07:53:46.624Z,992.63
2016-04-16T07:54:46.689Z,992.62
2016-04-16T07:55:46.739Z,992.62
2016-04-16T07:56:46.773Z,992.65
2016-04-16T07:57:46.838Z,992.66
2016-04-16T07:58:46.886Z,992.66
2016-04-16T07:59:46.936Z,992.65
2016-04-16T08:00:46.987Z,992.74
2016-04-16T08:01:47.036Z,992.69
2016-04-16T08:02:47.100Z,992.71
2016-04-16T08:03:47.150Z,992.61
2016-04-16T08:04:47.184Z,992.78
2016-04-16T08:05:47.250Z,992.76
2016-04-16T08:06:47.299Z,992.76
2016-04-16T08:07:47.349Z,992.82
2016-04-16T08:08:47.399Z,992.7
2016-04-16T08:09:47.448Z,992.73
2016-04-16T08:10:47.497Z,992.78
2016-04-16T08:11:47.547Z,992.71
2016-04-16T08:12:47.612Z,992.88
2016-04-16T08:13:47.662Z,992.76
2016-04-16T08:14:47.711Z,992.8
2016-04-16T08:15:47.760Z,992.68
2016-04-16T08:16:47.811Z,992.73
2016-04-16T08:17:47.865Z,992.7
2016-04-16T08:18:47.915Z,992.74
2016-04-16T08:19:47.965Z,992.78
2016-04-16T08:20:48.014Z,992.88
2016-04-16T08:21:48.062Z,992.78
2016-04-16T08:22:48.113Z,992.82
2016-04-16T08:23:48.178Z,992.85
2016-04-16T08:24:48.228Z,992.93
2016-04-16T08:25:48.277Z,992.78
2016-04-16T08:26:48.326Z,992.9
2016-04-16T08:27:48.376Z,992.96
2016-04-16T08:28:48.425Z,992.9
2016-04-16T08:29:48.475Z,992.93
2016-04-16T08:30:48.525Z,992.88
2016-04-16T08:31:48.590Z,992.94
2016-04-16T08:32:48.639Z,992.83
2016-04-16T08:33:48.674Z,992.88
2016-04-16T08:34:48.739Z,992.92
2016-04-16T08:35:48.788Z,992.93
2016-04-16T08:36:48.838Z,992.86
2016-04-16T08:37:48.888Z,992.93
2016-04-16T08:38:48.937Z,992.95
2016-04-16T08:39:48.986Z,992.99
2016-04-16T08:40:49.036Z,992.98
2016-04-16T08:41:49.101Z,993.03
2016-04-16T08:42:49.151Z,992.96
2016-04-16T08:43:49.201Z,993.04
2016-04-16T08:44:49.250Z,993.05
2016-04-16T08:45:49.300Z,993.04
2016-04-16T08:46:49.365Z,992.99
2016-04-16T08:47:49.399Z,993.09
2016-04-16T08:48:49.448Z,993.08
2016-04-16T08:49:49.498Z,993.13
2016-04-16T08:50:49.548Z,993.07
2016-04-16T08:51:49.613Z,993.13
2016-04-16T08:52:49.646Z,993.08
2016-04-16T08:53:49.712Z,993.08
2016-04-16T08:54:49.762Z,993.22
2016-04-16T08:55:49.811Z,993.11
2016-04-16T08:56:49.861Z,993.17
2016-04-16T08:57:49.909Z,993.19
2016-04-16T08:58:49.959Z,993.16
2016-04-16T08:59:50.008Z,993.16
2016-04-16T09:00:50.622Z,993.3
2016-04-16T09:01:50.577Z,993.18
2016-04-16T09:02:50.830Z,993.2
2016-04-16T09:03:50.567Z,993.22
2016-04-16T09:04:50.803Z,993.18
2016-04-16T09:05:50.822Z,993.09
2016-04-16T09:06:50.888Z,993.25
2016-04-16T09:07:50.937Z,993.28
2016-04-16T09:08:50.486Z,993.22
2016-04-16T09:09:50.521Z,993.21
2016-04-16T09:10:50.569Z,993.26
2016-04-16T09:11:50.682Z,993.27
2016-04-16T09:12:50.700Z,993.24
2016-04-16T09:13:50.734Z,993.3
2016-04-16T09:14:50.799Z,993.32
2016-04-16T09:15:50.849Z,993.29
2016-04-16T09:16:50.883Z,993.33
2016-04-16T09:17:50.933Z,993.31
2016-04-16T09:18:50.981Z,993.32
2016-04-16T09:19:51.047Z,993.33
2016-04-16T09:20:51.096Z,993.38
2016-04-16T09:21:51.146Z,993.38
2016-04-16T09:22:51.195Z,993.3
2016-04-16T09:23:51.262Z,993.37
2016-04-16T09:24:51.295Z,993.4
2016-04-16T09:25:51.376Z,993.32
2016-04-16T09:26:51.409Z,993.36
2016-04-16T09:27:51.444Z,993.41
2016-04-16T09:28:51.509Z,993.44
2016-04-16T09:29:51.559Z,993.37
2016-04-16T09:30:51.609Z,993.48
2016-04-16T09:31:51.658Z,993.39
2016-04-16T09:32:51.708Z,993.39
2016-04-16T09:33:51.772Z,993.34
2016-04-16T09:34:51.806Z,993.38
2016-04-16T09:35:51.871Z,993.39
2016-04-16T09:36:51.921Z,993.42
2016-04-16T09:37:51.971Z,993.41
2016-04-16T09:38:52.020Z,993.31
2016-04-16T09:39:52.070Z,993.45
2016-04-16T09:40:52.119Z,993.41
2016-04-16T09:41:52.185Z,993.45
2016-04-16T09:42:52.218Z,993.4
2016-04-16T09:43:52.283Z,993.44
2016-04-16T09:44:52.332Z,993.42
2016-04-16T09:45:52.382Z,993.45
2016-04-16T09:46:52.448Z,993.42
2016-04-16T09:47:52.498Z,993.38
2016-04-16T09:48:52.531Z,993.37
2016-04-16T09:49:52.596Z,993.46
2016-04-16T09:50:52.631Z,993.44
2016-04-16T09:51:52.680Z,993.46
2016-04-16T09:52:52.730Z,993.43
2016-04-16T09:53:52.795Z,993.46
2016-04-16T09:54:52.829Z,993.44
2016-04-16T09:55:52.894Z,993.47
2016-04-16T09:56:52.943Z,993.5
2016-04-16T09:57:52.993Z,993.43
2016-04-16T09:58:53.058Z,993.5
2016-04-16T09:59:53.092Z,993.44
2016-04-16T10:00:53.141Z,993.48
2016-04-16T10:01:53.207Z,993.47
2016-04-16T10:02:53.242Z,993.45
2016-04-16T10:03:53.291Z,993.48
2016-04-16T10:04:53.355Z,993.45
2016-04-16T10:05:53.405Z,993.42
2016-04-16T10:06:53.549Z,993.44
2016-04-16T10:07:53.505Z,993.45
2016-04-16T10:08:53.555Z,993.44
2016-04-16T10:09:53.619Z,993.43
2016-04-16T10:10:53.653Z,993.48
2016-04-16T10:11:53.703Z,993.55
2016-04-16T10:12:53.768Z,993.37
2016-04-16T10:13:53.818Z,993.44
2016-04-16T10:14:53.867Z,993.44
2016-04-16T10:15:53.949Z,993.47
2016-04-16T10:16:53.982Z,993.49
2016-04-16T10:17:54.016Z,993.45
2016-04-16T10:18:54.081Z,993.57
2016-04-16T10:19:54.130Z,993.52
2016-04-16T10:20:54.164Z,993.56
2016-04-16T10:21:54.307Z,993.53
2016-04-16T10:22:54.279Z,993.55
2016-04-16T10:23:54.329Z,993.6
2016-04-16T10:24:54.379Z,993.59
2016-04-16T10:25:54.428Z,993.65
2016-04-16T10:26:54.478Z,993.63
2016-04-16T10:27:54.526Z,993.61
2016-04-16T10:28:54.592Z,993.62
2016-04-16T10:29:54.625Z,993.59
2016-04-16T10:30:54.675Z,993.56
2016-04-16T10:31:54.741Z,993.52
2016-04-16T10:32:54.790Z,993.52
2016-04-16T10:33:54.855Z,993.6
2016-04-16T10:34:54.905Z,993.55
2016-04-16T10:35:54.939Z,993.5
2016-04-16T10:36:55.020Z,993.53
2016-04-16T10:37:55.039Z,993.49
2016-04-16T10:38:55.088Z,993.52
2016-04-16T10:39:55.153Z,993.57
2016-04-16T10:40:55.202Z,993.5
2016-04-16T10:41:55.252Z,993.49
2016-04-16T10:42:55.317Z,993.47
2016-04-16T10:43:55.352Z,993.55
2016-04-16T10:44:55.401Z,993.62
2016-04-16T10:45:55.450Z,993.64
2016-04-16T10:46:55.500Z,993.57
2016-04-16T10:47:55.565Z,993.64
2016-04-16T10:48:55.615Z,993.63
2016-04-16T10:49:55.648Z,993.57
2016-04-16T10:50:55.713Z,993.62
2016-04-16T10:51:55.903Z,993.74
2016-04-16T10:52:55.812Z,993.66
2016-04-16T10:53:55.862Z,993.87
2016-04-16T10:54:55.912Z,993.58
2016-04-16T10:55:55.961Z,993.71
2016-04-16T10:56:56.011Z,993.85
2016-04-16T10:57:56.076Z,993.92
2016-04-16T10:58:56.110Z,993.76
2016-04-16T10:59:56.176Z,993.82
2016-04-16T11:00:56.226Z,993.81
2016-04-16T11:01:56.275Z,993.79
2016-04-16T11:02:56.325Z,993.82
2016-04-16T11:03:56.373Z,993.78
2016-04-16T11:04:56.423Z,993.8
2016-04-16T11:05:56.472Z,993.92
2016-04-16T11:06:56.538Z,993.89
2016-04-16T11:07:56.572Z,993.81
2016-04-16T11:08:56.637Z,993.86
2016-04-16T11:09:56.687Z,993.92
2016-04-16T11:10:56.736Z,993.86
2016-04-16T11:11:56.786Z,993.91
2016-04-16T11:12:56.835Z,993.92
2016-04-16T11:13:56.885Z,993.92
2016-04-16T11:14:56.934Z,993.99
2016-04-16T11:15:56.984Z,993.97
2016-04-16T11:16:57.033Z,994
2016-04-16T11:17:57.099Z,993.99
2016-04-16T11:18:57.148Z,994.04
2016-04-16T11:19:57.182Z,994.07
2016-04-16T11:20:57.232Z,993.98
2016-04-16T11:21:57.313Z,994.06
2016-04-16T11:22:57.346Z,994.04
2016-04-16T11:23:57.396Z,994.03
2016-04-16T11:24:57.446Z,994.01
2016-04-16T11:25:57.495Z,993.99
2016-04-16T11:26:57.545Z,993.96
2016-04-16T11:27:57.595Z,993.89
2016-04-16T11:28:57.659Z,994
2016-04-16T11:29:57.709Z,993.89
2016-04-16T11:30:57.742Z,993.91
2016-04-16T11:31:57.809Z,993.87
2016-04-16T11:32:57.858Z,993.91
2016-04-16T11:33:57.908Z,993.88
2016-04-16T11:34:57.957Z,993.94
2016-04-16T11:35:58.006Z,993.86
2016-04-16T11:36:58.072Z,993.86
2016-04-16T11:37:58.122Z,993.91
2016-04-16T11:38:58.155Z,993.83
2016-04-16T11:39:58.205Z,993.83
2016-04-16T11:40:58.270Z,993.84
2016-04-16T11:41:58.319Z,993.93
2016-04-16T11:42:58.369Z,993.93
2016-04-16T11:43:58.419Z,993.9
2016-04-16T11:44:58.468Z,994
2016-04-16T11:45:58.518Z,994
2016-04-16T11:46:58.583Z,993.98
2016-04-16T11:47:58.616Z,994.06
2016-04-16T11:48:58.666Z,994.08
2016-04-16T11:49:58.732Z,994.03
2016-04-16T11:50:58.809Z,993.99
2016-04-16T11:51:58.919Z,993.99
2016-04-16T11:52:59.012Z,994.02
2016-04-16T11:53:59.105Z,993.95
2016-04-16T11:54:59.199Z,993.93
2016-04-16T11:55:59.266Z,993.93
2016-04-16T11:56:59.331Z,993.83
2016-04-16T11:57:59.396Z,993.86
2016-04-16T11:58:59.462Z,993.89
2016-04-16T11:59:59.527Z,993.9
2016-04-16T12:00:59.581Z,993.85
2016-04-16T12:01:59.654Z,993.77
2016-04-16T12:02:59.709Z,993.81
2016-04-16T12:03:59.764Z,993.8
2016-04-16T12:04:59.804Z,993.78
2016-04-16T12:05:59.870Z,993.74
2016-04-16T12:06:59.922Z,993.77
2016-04-16T12:07:59.975Z,993.73
2016-04-16T12:09:00.026Z,993.8
2016-04-16T12:10:00.095Z,993.64
2016-04-16T12:11:00.129Z,993.74
2016-04-16T12:12:00.180Z,993.7
2016-04-16T12:13:00.245Z,993.67
2016-04-16T12:14:00.279Z,993.69
2016-04-16T12:15:00.346Z,993.65
2016-04-16T12:16:00.396Z,993.55
2016-04-16T12:17:00.446Z,993.6
2016-04-16T12:18:00.497Z,993.63
2016-04-16T12:19:00.545Z,993.58
2016-04-16T12:20:00.596Z,993.71
2016-04-16T12:21:00.661Z,993.74
2016-04-16T12:22:00.695Z,993.76
2016-04-16T12:23:00.744Z,993.75
2016-04-16T12:24:00.809Z,993.88
2016-04-16T12:25:00.859Z,993.86
2016-04-16T12:26:00.894Z,993.83
2016-04-16T12:27:00.958Z,993.83
2016-04-16T12:28:01.008Z,993.81
2016-04-16T12:29:01.058Z,993.77
2016-04-16T12:30:01.107Z,993.76
2016-04-16T12:31:01.157Z,993.89